Time;durP1;ratioP1;P1;durP2;ratioP2;P2;SDS_P1;SDS_P2;PMS_P1;PMS_P2;Temp;Humidity;BMP_temperature;BMP_pressure;BME280_temperature;BME280_humidity;BME280_pressure;Samples;Min_cycle;Max_cycle;Signal;HPM_P1;HPM_P2
2022/05/30 00:00:40;;;;;;;6.47;2.10;;;;;;;14.66;60.43;99283.09;4352815;32;33072;-88
2022/05/30 00:03:12;;;;;;;5.62;2.22;;;;;;;14.50;61.69;99277.25;4341657;32;33308;-93
2022/05/30 00:05:46;;;;;;;4.28;2.05;;;;;;;14.65;61.46;99273.97;4365139;32;33875;-95
2022/05/30 00:08:18;;;;;;;5.55;1.98;;;;;;;14.76;61.26;99275.03;4365295;32;34664;-95
2022/05/30 00:10:53;;;;;;;4.82;2.12;;;;;;;14.76;61.40;99275.03;4365063;32;33173;-95
2022/05/30 00:13:25;;;;;;;4.70;2.25;;;;;;;14.71;61.71;99277.69;4365233;32;33821;-93
2022/05/30 00:15:52;;;;;;;3.80;2.10;;;;;;;14.85;61.50;99269.94;4359568;32;34287;-90
2022/05/30 00:18:26;;;;;;;5.53;2.08;;;;;;;14.78;61.77;99265.41;4355394;32;32252;-94
2022/05/30 00:20:59;;;;;;;5.93;2.28;;;;;;;14.92;61.46;99259.56;4380331;32;32902;-95
2022/05/30 00:23:27;;;;;;;4.90;2.12;;;;;;;14.93;61.45;99258.50;4379780;32;33624;-91
2022/05/30 00:25:57;;;;;;;4.12;2.15;;;;;;;14.90;61.52;99250.69;4380098;32;34268;-95
2022/05/30 00:28:28;;;;;;;4.60;1.90;;;;;;;14.93;61.57;99253.81;4379870;32;33658;-94
2022/05/30 00:30:56;;;;;;;4.37;1.83;;;;;;;14.81;62.03;99251.09;4379555;32;32424;-94
2022/05/30 00:33:25;;;;;;;3.47;1.73;;;;;;;14.95;61.69;99245.25;4379830;32;34289;-94
2022/05/30 00:35:58;;;;;;;5.57;2.17;;;;;;;15.11;61.37;99244.44;4355302;32;33787;-94
2022/05/30 00:38:26;;;;;;;6.10;2.03;;;;;;;15.13;61.40;99245.03;4379608;32;34668;-95
2022/05/30 00:40:54;;;;;;;4.55;1.95;;;;;;;15.11;61.56;99241.66;4379631;32;34214;-95
2022/05/30 00:43:26;;;;;;;5.40;2.10;;;;;;;15.20;60.82;99233.81;4379428;32;32404;-95
2022/05/30 00:45:56;;;;;;;5.62;1.90;;;;;;;15.35;59.68;99226.59;4375382;32;131601;-95
2022/05/30 00:48:27;;;;;;;4.28;2.00;;;;;;;15.44;59.06;99227.03;4367431;32;34650;-95
2022/05/30 00:51:02;;;;;;;4.12;2.05;;;;;;;15.24;59.48;99227.53;4379964;32;34155;-94
2022/05/30 00:53:33;;;;;;;4.95;2.20;;;;;;;15.21;59.52;99216.97;4367300;32;33164;-95
2022/05/30 00:56:04;;;;;;;4.20;1.98;;;;;;;15.12;59.85;99218.47;4379873;32;35215;-96
2022/05/30 00:58:34;;;;;;;5.05;2.17;;;;;;;15.27;59.19;99218.72;4367209;32;33654;-95
2022/05/30 01:01:09;;;;;;;4.25;1.98;;;;;;;15.37;58.84;99216.13;4379874;32;33177;-95
2022/05/30 01:06:32;;;;;;;5.25;2.40;;;;;;;15.22;58.97;99215.87;4369084;32;32817;-95
2022/05/30 01:09:08;;;;;;;4.60;2.40;;;;;;;15.11;59.44;99211.25;4379748;32;33813;-94
2022/05/30 01:11:52;;;;;;;5.62;2.17;;;;;;;15.16;59.37;99212.19;4379774;32;32950;-95
2022/05/30 01:14:20;;;;;;;7.40;2.37;;;;;;;15.27;59.11;99221.50;4366814;32;33881;-95
2022/05/30 01:16:48;;;;;;;6.12;2.20;;;;;;;15.19;59.44;99218.31;4379323;32;34333;-95
2022/05/30 01:19:30;;;;;;;6.07;2.60;;;;;;;15.16;59.36;99211.34;4379325;32;34635;-95
2022/05/30 01:22:20;;;;;;;4.85;2.40;;;;;;;15.01;59.83;99205.56;4367162;32;34062;-95
2022/05/30 01:25:07;;;;;;;6.47;2.50;;;;;;;15.09;59.47;99205.16;4366873;32;32190;-96
2022/05/30 01:27:45;;;;;;;5.47;2.30;;;;;;;15.19;59.00;99201.72;4367179;32;32864;-92
2022/05/30 01:30:17;;;;;;;3.47;1.90;;;;;;;15.13;59.26;99200.78;4366717;32;33393;-94
2022/05/30 01:32:49;;;;;;;5.18;2.35;;;;;;;15.18;58.92;99195.34;4367328;32;34050;-95
2022/05/30 01:35:24;;;;;;;6.95;2.22;;;;;;;15.16;59.06;99192.84;4379464;32;33630;-94
2022/05/30 01:37:55;;;;;;;5.07;2.33;;;;;;;15.22;58.86;99188.22;4366680;32;32915;-95
2022/05/30 01:40:26;;;;;;;5.15;2.30;;;;;;;15.15;58.86;99190.31;4379061;32;34567;-95
2022/05/30 01:42:55;;;;;;;5.20;2.20;;;;;;;15.16;58.87;99183.72;4378711;32;32758;-95
2022/05/30 01:45:29;;;;;;;4.10;2.20;;;;;;;15.03;59.34;99200.63;4378468;32;34746;-95
2022/05/30 01:47:57;;;;;;;4.87;1.92;;;;;;;15.03;59.20;99197.84;4378928;32;34525;-95
2022/05/30 01:50:28;;;;;;;5.85;2.30;;;;;;;15.00;59.50;99198.34;4353937;32;34317;-96
2022/05/30 01:52:59;;;;;;;5.47;2.08;;;;;;;14.99;59.45;99192.00;4366487;32;32223;-94
2022/05/30 01:55:28;;;;;;;4.72;2.42;;;;;;;14.96;59.52;99191.66;4379238;32;34405;-94
2022/05/30 01:57:59;;;;;;;7.45;2.08;;;;;;;15.15;58.91;99179.28;4366571;32;33901;-94
2022/05/30 02:00:31;;;;;;;5.72;2.45;;;;;;;15.05;59.00;99187.38;4379139;32;34665;-95
2022/05/30 02:03:00;;;;;;;3.58;2.12;;;;;;;15.04;59.11;99191.25;4378504;32;32349;-95
2022/05/30 02:05:33;;;;;;;4.45;2.10;;;;;;;15.13;58.59;99198.03;4379125;32;33402;-92
2022/05/30 02:08:01;;;;;;;5.45;2.30;;;;;;;15.05;58.56;99193.75;4379008;32;34781;-94
2022/05/30 02:10:32;;;;;;;5.40;2.37;;;;;;;14.98;58.92;99197.75;4366601;32;34077;-94
2022/05/30 02:13:00;;;;;;;3.85;2.20;;;;;;;15.01;58.76;99197.25;4366028;32;32164;-94
2022/05/30 02:17:00;;;;;;;7.45;2.67;;;;;;;15.00;58.55;99193.66;4378686;32;33743;-93
2022/05/30 02:18:26;;;;;;;5.12;2.40;;;;;;;15.12;57.93;99190.81;4368384;32;34002;-94
2022/05/30 02:20:57;;;;;;;4.55;2.00;;;;;;;15.07;58.20;99201.78;4366614;32;32335;-95
2022/05/30 02:23:27;;;;;;;5.78;2.37;;;;;;;15.08;58.00;99200.72;4380672;32;32679;-95
2022/05/30 02:25:58;;;;;;;4.85;2.33;;;;;;;15.11;58.15;99205.72;4381040;32;33871;-93
2022/05/30 02:28:26;;;;;;;4.30;2.10;;;;;;;15.02;58.24;99207.22;4380574;32;33984;-94
2022/05/30 02:31:00;;;;;;;8.88;2.45;;;;;;;15.08;58.23;99206.22;4368459;32;32473;-94
2022/05/30 02:36:41;;;;;;;6.65;2.20;;;;;;;14.99;58.55;99203.03;4369934;32;33221;-95
2022/05/30 02:39:15;;;;;;;8.93;2.53;;;;;;;15.07;58.17;99213.69;4370606;32;34243;-94
2022/05/30 02:41:48;;;;;;;5.62;2.55;;;;;;;15.11;58.06;99208.50;4368083;32;32308;-93
2022/05/30 02:44:21;;;;;;;4.60;2.17;;;;;;;14.92;58.52;99209.84;4380589;32;33284;-94
2022/05/30 02:46:52;;;;;;;4.80;2.40;;;;;;;14.87;58.58;99218.03;4380241;32;33079;-94
2022/05/30 02:49:26;;;;;;;4.75;2.10;;;;;;;15.02;57.99;99219.12;4380563;32;35578;-95
2022/05/30 02:51:54;;;;;;;5.25;2.58;;;;;;;15.04;57.96;99228.00;4380689;32;34267;-95
2022/05/30 02:54:23;;;;;;;6.65;2.20;;;;;;;14.87;58.67;99227.16;4380468;32;33357;-94
2022/05/30 02:56:57;;;;;;;6.12;2.30;;;;;;;14.99;58.12;99227.91;4368466;32;32216;-94
2022/05/30 02:59:27;;;;;;;5.68;2.60;;;;;;;15.08;57.96;99231.94;4355626;32;32977;-94
2022/05/30 03:01:57;;;;;;;6.95;2.30;;;;;;;15.01;58.28;99234.03;4368402;32;34090;-94
2022/05/30 03:04:31;;;;;;;5.20;2.50;;;;;;;14.95;58.41;99236.97;4368137;32;31928;-94
2022/05/30 03:07:02;;;;;;;5.95;2.42;;;;;;;15.12;57.99;99237.81;4380877;32;34701;-94
2022/05/30 03:09:30;;;;;;;6.62;2.75;;;;;;;14.98;58.29;99239.22;4380433;32;34359;-93
2022/05/30 03:11:59;;;;;;;7.10;2.50;;;;;;;15.04;58.15;99241.81;4367719;32;32109;-92
2022/05/30 03:14:26;;;;;;;5.00;2.45;;;;;;;15.02;58.28;99243.16;4380102;32;32867;-93
2022/05/30 03:16:55;;;;;;;6.18;2.40;;;;;;;14.93;58.51;99240.00;4380701;32;33941;-94
2022/05/30 03:19:25;;;;;;;4.45;2.37;;;;;;;15.11;58.09;99245.25;4380527;32;35399;-94
2022/05/30 03:21:53;;;;;;;4.70;2.33;;;;;;;15.02;58.28;99240.38;4368477;32;34050;-94
2022/05/30 03:24:23;;;;;;;5.10;2.25;;;;;;;15.11;58.23;99244.44;4380452;32;34231;-93
2022/05/30 03:26:52;;;;;;;6.22;2.50;;;;;;;15.16;57.94;99252.81;4380206;32;32673;-94
2022/05/30 03:29:23;;;;;;;4.72;2.65;;;;;;;15.21;57.76;99250.12;4379979;32;33683;-94
2022/05/30 03:31:52;;;;;;;4.72;2.40;;;;;;;15.04;58.36;99263.09;4355325;32;32064;-92
2022/05/30 03:34:21;;;;;;;5.75;2.60;;;;;;;15.20;57.92;99256.75;4380926;32;33362;-96
2022/05/30 03:36:49;;;;;;;7.80;2.70;;;;;;;15.12;58.21;99255.25;4370004;32;33224;-94
2022/05/30 03:39:19;;;;;;;4.20;2.42;;;;;;;15.08;59.03;99247.69;4377727;32;34717;-92
2022/05/30 03:42:01;;;;;;;4.72;2.60;;;;;;;14.91;58.86;99249.62;4368628;32;33319;-92
2022/05/30 03:44:30;;;;;;;6.00;3.33;;;;;;;15.10;58.16;99253.81;4380206;32;33388;-92
2022/05/30 03:47:01;;;;;;;5.78;2.90;;;;;;;15.05;58.40;99256.47;4380100;32;34574;-91
2022/05/30 03:49:31;;;;;;;6.97;2.90;;;;;;;15.04;58.40;99250.12;4380166;32;33853;-91
2022/05/30 03:52:01;;;;;;;7.28;3.03;;;;;;;15.05;58.52;99253.72;4379789;32;34800;-93
2022/05/30 03:54:32;;;;;;;5.82;3.20;;;;;;;15.00;58.91;99248.94;4355544;32;32616;-92
2022/05/30 03:57:03;;;;;;;5.05;2.85;;;;;;;15.05;59.03;99250.94;4380135;32;34051;-92
2022/05/30 03:59:31;;;;;;;6.68;2.95;;;;;;;15.08;58.95;99250.44;4380123;32;34230;-92
2022/05/30 04:02:01;;;;;;;5.80;2.95;;;;;;;15.03;58.97;99247.59;4355197;32;33352;-92
2022/05/30 04:04:30;;;;;;;7.53;2.87;;;;;;;15.14;59.51;99263.28;4352460;32;32994;-92
2022/05/30 04:07:02;;;;;;;5.68;2.80;;;;;;;15.15;59.84;99265.78;4356946;32;34653;-92
2022/05/30 04:09:34;;;;;;;7.03;3.20;;;;;;;15.20;59.97;99267.81;4364202;32;34988;-92
2022/05/30 04:12:07;;;;;;;6.20;2.72;;;;;;;15.21;60.50;99255.66;4365253;32;32292;-90
2022/05/30 04:14:44;;;;;;;7.35;3.50;;;;;;;15.21;61.21;99250.12;4380372;32;34066;-91
2022/05/30 04:17:16;;;;;;;7.10;3.72;;;;;;;15.34;60.95;99249.81;4380062;32;33533;-90
2022/05/30 04:19:45;;;;;;;9.95;5.22;;;;;;;15.35;60.91;99259.78;4379795;32;34478;-91
2022/05/30 04:22:17;;;;;;;8.68;4.50;;;;;;;15.47;60.72;99256.94;4379798;32;33048;-91
2022/05/30 04:24:55;;;;;;;10.55;4.60;;;;;;;15.64;60.10;99271.63;4367744;32;32263;-91
2022/05/30 04:27:29;;;;;;;9.63;3.90;;;;;;;15.47;60.85;99268.00;4365267;32;34740;-91
2022/05/30 04:30:01;;;;;;;8.88;4.07;;;;;;;15.60;60.43;99266.88;4355117;32;33041;-88
2022/05/30 04:32:34;;;;;;;8.07;4.28;;;;;;;15.67;60.35;99264.75;4367249;32;33554;-91
2022/05/30 04:35:05;;;;;;;9.93;4.80;;;;;;;15.71;60.13;99268.69;4367848;32;32571;-84
2022/05/30 04:37:35;;;;;;;13.45;6.93;;;;;;;15.90;58.95;99274.78;4366942;32;33166;-94
2022/05/30 04:40:11;;;;;;;10.18;5.07;;;;;;;15.86;58.75;99270.84;4367728;32;34890;-91
2022/05/30 04:42:42;;;;;;;8.60;4.12;;;;;;;15.84;58.66;99282.16;4380032;32;32087;-95
2022/05/30 04:45:15;;;;;;;8.23;4.12;;;;;;;15.93;58.00;99277.87;4368636;32;32141;-91
2022/05/30 04:47:48;;;;;;;8.80;3.37;;;;;;;15.90;57.54;99283.94;4374258;32;33986;-90
2022/05/30 04:50:20;;;;;;;7.80;3.58;;;;;;;15.88;57.76;99294.41;4341484;32;32918;-94
2022/05/30 04:52:48;;;;;;;5.87;2.65;;;;;;;15.79;56.98;99288.47;4351954;32;34426;-96
2022/05/30 04:55:18;;;;;;;7.65;2.97;;;;;;;15.75;56.87;99292.81;4375686;32;31543;-96
2022/05/30 04:57:49;;;;;;;7.22;2.85;;;;;;;15.89;56.89;99293.31;4379822;32;33212;-95
2022/05/30 05:00:23;;;;;;;8.90;3.97;;;;;;;15.99;57.40;99296.25;4368679;32;34873;-85
2022/05/30 05:02:53;;;;;;;5.95;2.75;;;;;;;16.01;58.94;99287.69;4380541;32;33198;-95
2022/05/30 05:05:22;;;;;;;7.35;2.53;;;;;;;16.23;59.56;99290.50;4380831;32;33224;-94
2022/05/30 05:08:21;;;;;;;7.03;2.97;;;;;;;15.95;55.84;99294.25;4380857;32;32376;-83
2022/05/30 05:11:16;;;;;;;;;;;;;;;16.31;55.00;99312.19;4358728;32;33011;-95
2022/05/30 05:13:53;;;;;;;8.68;2.58;;;;;;;16.13;55.27;99303.09;4337842;32;34140;-92
2022/05/30 05:16:28;;;;;;;8.57;2.60;;;;;;;15.67;55.93;99303.47;4375580;32;31744;-93
2022/05/30 05:18:59;;;;;;;10.95;4.10;;;;;;;15.73;55.90;99306.06;4352887;32;32433;-96
2022/05/30 05:21:43;;;;;;;14.40;3.67;;;;;;;15.78;55.78;99308.09;4351408;32;33858;-93
2022/05/30 05:24:12;;;;;;;7.72;2.78;;;;;;;15.87;56.10;99320.41;4350912;32;32448;-95
2022/05/30 05:26:47;;;;;;;8.57;3.10;;;;;;;15.90;55.86;99319.91;4364357;32;34773;-94
2022/05/30 05:29:18;;;;;;;16.42;3.53;;;;;;;16.22;55.06;99322.06;4351011;32;33124;-94
2022/05/30 05:31:49;;;;;;;10.48;3.33;;;;;;;15.70;56.08;99330.63;4362478;32;35266;-92
2022/05/30 05:34:18;;;;;;;6.28;3.33;;;;;;;15.85;56.19;99328.13;4350140;32;32497;-95
2022/05/30 05:36:52;;;;;;;13.48;3.08;;;;;;;15.90;55.70;99325.44;4363190;32;32817;-95
2022/05/30 05:39:20;;;;;;;15.75;3.33;;;;;;;16.04;54.67;99325.94;4350597;32;31770;-93
2022/05/30 05:41:50;;;;;;;16.00;4.15;;;;;;;16.29;54.11;99339.28;4363268;32;36019;-93
2022/05/30 05:44:23;;;;;;;10.70;2.97;;;;;;;16.03;55.20;99340.88;4364888;32;33499;-96
2022/05/30 05:47:00;;;;;;;14.98;3.50;;;;;;;16.07;54.90;99342.88;4354422;32;32116;-95
2022/05/30 05:49:29;;;;;;;6.43;2.60;;;;;;;16.23;55.19;99340.34;4367483;32;34992;-92
2022/05/30 05:51:57;;;;;;;9.30;2.65;;;;;;;16.32;55.92;99333.25;4366004;32;32780;-96
2022/05/30 05:54:31;;;;;;;7.40;2.50;;;;;;;16.38;56.34;99338.59;4354823;32;32509;-96
2022/05/30 05:57:03;;;;;;;11.85;3.62;;;;;;;16.59;55.67;99347.19;4369184;32;32311;-96
2022/05/30 05:59:33;;;;;;;8.60;3.00;;;;;;;16.60;55.26;99351.66;4371976;32;34193;-96
2022/05/30 06:02:12;;;;;;;7.70;2.35;;;;;;;16.64;54.77;99350.91;4372112;32;32753;-96
2022/05/30 06:04:44;;;;;;;6.55;2.70;;;;;;;16.48;56.33;99349.84;4357974;32;32139;-96
2022/05/30 06:07:40;;;;;;;7.70;2.65;;;;;;;16.74;56.12;99358.53;4361474;32;33135;-96
2022/05/30 06:10:13;;;;;;;6.87;2.40;;;;;;;16.89;56.01;99360.66;4367926;32;33889;-96
2022/05/30 06:12:46;;;;;;;13.87;3.53;;;;;;;16.97;53.73;99347.16;4368513;32;34668;-96
2022/05/30 06:15:18;;;;;;;12.68;3.67;;;;;;;16.99;53.38;99356.06;4356141;32;32482;-96
2022/05/30 06:17:50;;;;;;;10.73;3.17;;;;;;;17.02;53.32;99347.22;4357207;32;31557;-96
2022/05/30 06:20:21;;;;;;;8.98;2.42;;;;;;;17.03;53.15;99353.59;4357827;32;32040;-96
2022/05/30 06:22:50;;;;;;;8.02;2.92;;;;;;;17.01;53.35;99353.03;4369758;32;34574;-96
2022/05/30 06:25:27;;;;;;;5.90;2.30;;;;;;;17.00;53.04;99360.50;4371099;32;33239;-96
2022/05/30 06:27:58;;;;;;;;;;;;;;;17.03;54.88;99364.69;4372494;32;32011;-96
2022/05/30 06:30:30;;;;;;;6.72;2.40;;;;;;;17.23;54.54;99364.94;4369062;32;34116;-96
2022/05/30 06:33:01;;;;;;;7.80;2.33;;;;;;;17.19;54.88;99361.00;4355545;32;33150;-96
2022/05/30 06:35:34;;;;;;;12.65;3.00;;;;;;;17.43;53.91;99367.94;4355243;32;33560;-96
2022/05/30 06:38:11;;;;;;;7.62;2.62;;;;;;;16.96;52.43;99366.81;4367411;32;31988;-96
2022/05/30 06:40:45;;;;;;;8.15;2.70;;;;;;;17.34;51.83;99372.28;4380455;32;34025;-95
2022/05/30 06:43:16;;;;;;;6.68;3.00;;;;;;;17.70;50.74;99369.88;4368400;32;32575;-95
2022/05/30 06:45:49;;;;;;;9.65;3.30;;;;;;;17.26;50.21;99371.91;4356040;32;31847;-95
2022/05/30 06:48:30;;;;;;;11.45;2.30;;;;;;;17.57;49.78;99378.56;4358366;32;33104;-95
2022/05/30 06:51:04;;;;;;;16.23;3.47;;;;;;;17.58;49.51;99383.03;4368703;32;33656;-96
2022/05/30 06:53:35;;;;;;;7.30;2.10;;;;;;;17.41;49.85;99383.16;4368306;32;35477;-96
2022/05/30 06:56:12;;;;;;;5.57;2.60;;;;;;;17.65;49.51;99387.31;4367883;32;32200;-96
2022/05/30 06:58:40;;;;;;;11.85;2.62;;;;;;;17.77;49.54;99389.91;4367668;32;34797;-95
2022/05/30 07:01:11;;;;;;;10.52;2.72;;;;;;;17.79;48.52;99382.16;4356901;32;34326;-96
2022/05/30 07:03:47;;;;;;;9.52;3.05;;;;;;;17.82;49.00;99380.81;4356918;32;33827;-96
2022/05/30 07:06:30;;;;;;;6.22;2.78;;;;;;;17.94;49.00;99379.53;4357830;32;32981;-96
2022/05/30 07:09:07;;;;;;;14.93;2.87;;;;;;;17.81;49.73;99368.84;4368055;32;34378;-84
2022/05/30 07:11:41;;;;;;;13.80;3.20;;;;;;;17.98;49.04;99364.00;4355585;32;33691;-89
2022/05/30 07:14:16;;;;;;;13.98;3.65;;;;;;;18.02;49.30;99370.72;4363177;32;35239;-88
2022/05/30 07:16:49;;;;;;;10.63;2.95;;;;;;;18.35;48.13;99374.25;4363190;32;34371;-88
2022/05/30 07:19:20;;;;;;;32.60;4.20;;;;;;;18.39;47.35;99378.19;4350480;32;32573;-92
2022/05/30 07:21:51;;;;;;;77.97;8.90;;;;;;;18.34;46.10;99375.37;4350762;32;33308;-91
2022/05/30 07:24:27;;;;;;;9.95;2.72;;;;;;;18.48;45.27;99372.97;4351503;32;34569;-93
2022/05/30 07:27:14;;;;;;;;;;;;;;;18.46;43.43;99367.66;4351177;32;32406;-91
2022/05/30 07:29:43;;;;;;;11.48;2.20;;;;;;;18.52;44.01;99358.25;4350135;32;34140;-89
2022/05/30 07:32:33;;;;;;;7.65;2.42;;;;;;;18.54;43.93;99372.72;4350196;32;34113;-91
2022/05/30 07:35:16;;;;;;;8.68;2.60;;;;;;;18.77;44.88;99367.87;4349964;32;33087;-89
2022/05/30 07:38:07;;;;;;;11.30;2.20;;;;;;;18.84;43.65;99366.53;4362833;32;33957;-89
2022/05/30 07:40:39;;;;;;;13.65;2.47;;;;;;;18.73;42.24;99365.66;4361913;32;31796;-90
2022/05/30 07:43:07;;;;;;;6.90;2.05;;;;;;;19.21;40.97;99363.59;4350091;32;32607;-90
2022/05/30 07:45:37;;;;;;;11.43;2.15;;;;;;;19.27;40.90;99361.66;4350225;32;34588;-90
2022/05/30 07:48:05;;;;;;;8.48;2.30;;;;;;;19.32;41.09;99368.09;4362841;32;33759;-91
2022/05/30 07:50:35;;;;;;;8.20;2.08;;;;;;;18.96;42.45;99369.06;4362636;32;33232;-90
2022/05/30 07:53:04;;;;;;;5.75;1.70;;;;;;;19.48;41.25;99366.19;4362495;32;34421;-89
2022/05/30 07:55:34;;;;;;;12.50;2.22;;;;;;;19.62;41.71;99375.69;4362822;32;34423;-90
2022/05/30 07:58:06;;;;;;;17.92;3.50;;;;;;;19.06;40.30;99369.09;4362670;32;33193;-89
2022/05/30 08:00:35;;;;;;;14.13;8.35;;;;;;;19.26;40.36;99360.00;4350580;32;31918;-89
2022/05/30 08:03:11;;;;;;;15.45;5.97;;;;;;;19.46;40.19;99362.84;4362813;32;34046;-88
2022/05/30 08:05:43;;;;;;;6.90;2.40;;;;;;;19.62;40.15;99366.50;4350895;32;33788;-88
2022/05/30 08:08:25;;;;;;;8.10;2.62;;;;;;;19.78;40.83;99368.19;4365385;32;32362;-90
2022/05/30 08:10:53;;;;;;;14.27;2.92;;;;;;;19.66;40.97;99375.97;4364839;32;33466;-90
2022/05/30 08:13:24;;;;;;;7.82;2.10;;;;;;;19.55;40.66;99377.91;4352633;32;32889;-89
2022/05/30 08:15:55;;;;;;;6.45;1.95;;;;;;;19.62;41.48;99364.53;4365037;32;33815;-89
2022/05/30 08:18:27;;;;;;;9.63;2.58;;;;;;;19.86;42.93;99373.22;4364057;32;33916;-91
2022/05/30 08:20:56;;;;;;;8.40;2.37;;;;;;;19.68;40.73;99382.09;4340756;32;32685;-90
2022/05/30 08:23:30;;;;;;;6.87;2.12;;;;;;;20.05;40.52;99388.25;4352797;32;33481;-86
2022/05/30 08:25:57;;;;;;;7.45;2.10;;;;;;;19.97;41.05;99382.41;4352412;32;32946;-89
2022/05/30 08:28:29;;;;;;;6.87;2.10;;;;;;;20.08;41.57;99397.19;4364958;32;34350;-90
2022/05/30 08:31:00;;;;;;;26.15;4.45;;;;;;;20.17;39.48;99395.47;4352949;32;33783;-89
2022/05/30 08:33:33;;;;;;;13.18;7.95;;;;;;;20.32;38.56;99398.25;4341334;32;34037;-91
2022/05/30 08:36:09;;;;;;;7.85;3.22;;;;;;;20.66;38.66;99402.16;4365090;32;34366;-92
2022/05/30 08:38:39;;;;;;;6.62;2.12;;;;;;;20.45;39.47;99389.38;4352375;32;33997;-91
2022/05/30 08:44:04;;;;;;;18.83;8.40;;;;;;;20.71;39.24;99377.06;4367055;32;34581;-90
2022/05/30 08:46:45;;;;;;;6.95;1.95;;;;;;;20.98;40.17;99364.66;4364877;32;35149;-91
2022/05/30 08:49:30;;;;;;;9.10;5.62;;;;;;;21.03;39.18;99370.22;4365105;32;34544;-89
2022/05/30 08:52:25;;;;;;;11.70;7.20;;;;;;;21.13;37.42;99369.34;4352303;32;31849;-91
2022/05/30 08:55:02;;;;;;;13.50;5.78;;;;;;;21.30;37.10;99378.22;4340186;32;33235;-92
2022/05/30 08:57:52;;;;;;;7.37;2.20;;;;;;;21.36;37.47;99377.91;4364472;32;34936;-91
2022/05/30 09:00:51;;;;;;;4.62;2.03;;;;;;;21.44;35.90;99386.81;4352451;32;34013;-91
2022/05/30 09:03:31;;;;;;;8.18;2.33;;;;;;;21.31;36.42;99400.28;4352776;32;34109;-91
2022/05/30 09:06:05;;;;;;;7.12;2.12;;;;;;;21.26;37.02;99400.31;4352102;32;32499;-91
2022/05/30 09:08:37;;;;;;;7.43;1.83;;;;;;;20.79;36.72;99408.28;4352703;32;35272;-91
2022/05/30 09:11:24;;;;;;;5.22;1.70;;;;;;;21.15;35.69;99404.22;4352231;32;33072;-93
2022/05/30 09:13:54;;;;;;;4.35;1.60;;;;;;;21.14;35.61;99398.94;4364745;32;34222;-93
2022/05/30 09:16:37;;;;;;;3.62;1.62;;;;;;;21.66;37.69;99401.19;4352430;32;34578;-92
2022/05/30 09:19:08;;;;;;;13.80;2.00;;;;;;;22.01;37.28;99403.78;4351982;32;32830;-92
2022/05/30 09:21:42;;;;;;;6.15;1.80;;;;;;;;;;4364512;32;34824;-92
2022/05/30 09:24:14;;;;;;;3.90;1.62;;;;;;;21.92;35.90;99404.66;4352474;32;31652;-93
2022/05/30 09:26:45;;;;;;;7.05;2.10;;;;;;;21.72;36.83;99402.81;4364222;32;34005;-92
2022/05/30 09:29:27;;;;;;;5.15;1.70;;;;;;;21.89;35.60;99406.06;4351523;32;33761;-93
2022/05/30 09:32:16;;;;;;;6.10;1.70;;;;;;;21.88;36.69;99409.97;4351725;32;31981;-92
2022/05/30 09:34:52;;;;;;;8.15;1.95;;;;;;;21.90;37.41;99407.72;4352276;32;33963;-93
2022/05/30 09:37:34;;;;;;;12.32;6.05;;;;;;;21.88;34.93;99401.59;4352220;32;32700;-91
2022/05/30 09:40:09;;;;;;;14.68;5.40;;;;;;;21.78;35.99;99404.47;4351950;32;33290;-91
2022/05/30 09:42:48;;;;;;;46.45;30.00;;;;;;;22.01;34.59;99395.38;4364156;32;34022;-90
2022/05/30 09:45:28;;;;;;;8.45;2.92;;;;;;;21.90;36.26;99401.31;4364524;32;34375;-92
2022/05/30 09:48:05;;;;;;;18.33;10.82;;;;;;;21.99;34.95;99414.37;4352227;32;32439;-90
2022/05/30 09:50:42;;;;;;;4.30;1.70;;;;;;;21.97;34.86;99418.59;4351828;32;33037;-92
2022/05/30 09:53:11;;;;;;;7.07;2.25;;;;;;;21.51;34.52;99420.81;4352030;32;35029;-92
2022/05/30 09:55:51;;;;;;;8.18;1.77;;;;;;;21.70;35.37;99421.81;4352403;32;33121;-91
2022/05/30 09:58:49;;;;;;;3.00;1.62;;;;;;;21.76;35.39;99420.69;4364100;32;33934;-92
2022/05/30 10:01:24;;;;;;;6.03;1.75;;;;;;;21.90;34.95;99421.69;4364568;32;35127;-93
2022/05/30 10:03:59;;;;;;;5.25;1.45;;;;;;;22.25;33.46;99426.19;4351609;32;33557;-92
2022/05/30 10:06:38;;;;;;;4.53;1.70;;;;;;;22.08;34.32;99424.97;4340796;32;33674;-93
2022/05/30 10:09:16;;;;;;;4.97;1.52;;;;;;;21.80;34.87;99427.34;4351850;32;33131;-92
2022/05/30 10:11:55;;;;;;;3.47;1.50;;;;;;;22.15;35.87;99429.06;4339586;32;32933;-91
2022/05/30 10:14:26;;;;;;;5.35;1.35;;;;;;;21.80;33.18;99424.56;4350823;32;33592;-90
2022/05/30 10:17:18;;;;;;;4.97;1.12;;;;;;;21.58;33.57;99429.72;4363979;32;33300;-93
2022/05/30 10:19:48;;;;;;;3.35;1.48;;;;;;;21.85;36.24;99424.53;4356607;32;34737;-84
2022/05/30 10:28:29;;;;;;;4.43;1.48;;;;;;;22.38;33.80;99427.50;4377071;32;34100;-85
2022/05/30 10:31:18;;;;;;;5.95;1.58;;;;;;;22.68;35.22;99434.78;4363914;32;34493;-86
2022/05/30 10:34:04;;;;;;;7.85;4.40;;;;;;;22.19;33.00;99429.31;4335768;32;33020;-85
2022/05/30 10:36:35;;;;;;;5.50;2.30;;;;;;;22.39;33.73;99431.97;4336280;32;32524;-85
2022/05/30 10:39:15;;;;;;;7.25;2.30;;;;;;;22.32;32.47;99443.47;4348690;32;33560;-85
2022/05/30 10:41:55;;;;;;;5.43;2.00;;;;;;;22.16;33.36;99444.72;4336204;32;32426;-85
2022/05/30 10:44:30;;;;;;;6.03;1.75;;;;;;;22.09;33.53;99444.25;4338571;32;34205;-84
2022/05/30 10:47:25;;;;;;;3.93;2.00;;;;;;;22.14;33.59;99446.97;4362933;32;34625;-84
2022/05/30 10:50:14;;;;;;;3.92;1.45;;;;;;;22.20;34.02;99445.81;4338453;32;32662;-83
2022/05/30 10:52:49;;;;;;;5.22;1.60;;;;;;;22.11;36.08;99441.12;4338355;32;32366;-83
2022/05/30 10:55:22;;;;;;;8.95;1.60;;;;;;;22.23;35.57;99436.84;4350369;32;34062;-83
2022/05/30 10:57:59;;;;;;;2.33;1.05;;;;;;;22.22;34.81;99437.97;4350306;32;33288;-83
2022/05/30 11:00:39;;;;;;;5.68;1.40;;;;;;;21.91;33.33;99436.50;4350399;32;32988;-83
2022/05/30 11:03:26;;;;;;;5.85;2.20;;;;;;;22.13;33.20;99438.88;4351078;32;34645;-91
2022/05/30 11:06:00;;;;;;;;;;;;;;;21.84;33.38;99444.37;4338646;32;33866;-91
2022/05/30 11:08:49;;;;;;;3.50;1.30;;;;;;;22.15;32.94;99445.84;4338487;32;32561;-84
2022/05/30 11:11:23;;;;;;;3.30;1.60;;;;;;;22.00;33.52;99457.97;4338482;32;31609;-85
2022/05/30 11:14:03;;;;;;;3.15;1.17;;;;;;;22.10;33.32;99467.44;4350738;32;33001;-90
2022/05/30 11:16:43;;;;;;;6.53;1.67;;;;;;;22.09;33.41;99471.34;4350794;32;34662;-85
2022/05/30 11:19:37;;;;;;;3.20;1.37;;;;;;;21.87;34.42;99466.16;4340310;32;32095;-92
2022/05/30 11:22:30;;;;;;;6.93;1.60;;;;;;;22.02;33.88;99468.88;4351076;32;33505;-92
2022/05/30 11:25:04;;;;;;;2.75;1.25;;;;;;;21.99;34.64;99472.22;4347082;32;32301;-93
2022/05/30 11:27:41;;;;;;;4.85;1.52;;;;;;;22.05;33.80;99476.69;4350301;32;34608;-92
2022/05/30 11:30:30;;;;;;;3.75;1.35;;;;;;;21.82;34.29;99480.97;4363746;32;33935;-93
2022/05/30 11:33:36;;;;;;;4.43;1.48;;;;;;;21.78;33.98;99474.31;4351239;32;31681;-95
2022/05/30 11:36:30;;;;;;;5.87;1.75;;;;;;;21.56;34.32;99469.09;4339109;32;34183;-94
2022/05/30 11:39:04;;;;;;;4.95;1.50;;;;;;;21.65;34.01;99472.12;4350195;32;35246;-96
2022/05/30 11:41:55;;;;;;;6.10;1.83;;;;;;;21.64;33.75;99467.66;4338182;32;32848;-95
2022/05/30 11:44:48;;;;;;;4.87;1.85;;;;;;;21.47;33.67;99467.19;4350237;32;33876;-96
2022/05/30 11:47:30;;;;;;;2.97;1.55;;;;;;;21.50;33.98;99459.06;4350693;32;33400;-95
2022/05/30 11:50:09;;;;;;;5.07;1.67;;;;;;;21.66;34.90;99462.63;4339071;32;35152;-96
2022/05/30 11:53:06;;;;;;;7.40;1.70;;;;;;;21.80;34.80;99460.87;4338222;32;34078;-94
2022/05/30 11:55:52;;;;;;;5.87;1.67;;;;;;;21.74;33.19;99459.25;4338315;32;31794;-95
2022/05/30 11:58:49;;;;;;;5.00;2.00;;;;;;;22.14;33.12;99460.13;4338196;32;32154;-95
2022/05/30 12:01:18;;;;;;;4.35;1.92;;;;;;;21.87;33.18;99457.78;4327448;32;33039;-96
2022/05/30 12:04:07;;;;;;;5.32;1.95;;;;;;;21.94;32.67;99464.72;4350102;32;34717;-94
2022/05/30 12:07:08;;;;;;;6.40;2.22;;;;;;;22.14;32.93;99465.69;4350744;32;33213;-94
2022/05/30 12:09:48;;;;;;;5.10;1.77;;;;;;;22.14;33.18;99460.13;4338713;32;33603;-93
2022/05/30 12:12:40;;;;;;;4.93;1.55;;;;;;;22.20;32.96;99461.75;4361871;32;34485;-94
2022/05/30 12:15:20;;;;;;;2.45;1.08;;;;;;;21.85;33.03;99454.44;4349932;32;33860;-93
2022/05/30 12:24:04;;;;;;;5.32;1.33;;;;;;;21.80;33.89;99474.00;4339749;32;32957;-93
2022/05/30 12:26:53;;;;;;;6.62;1.50;;;;;;;21.58;34.02;99466.03;4337891;32;33831;-91
2022/05/30 12:29:39;;;;;;;5.03;1.50;;;;;;;21.67;33.72;99464.31;4337792;32;31803;-93
2022/05/30 12:32:23;;;;;;;5.25;1.75;;;;;;;21.68;34.52;99455.62;4337762;32;32474;-83